createdAt,value
2019-03-26T00:00:57.553Z,6.40
2019-03-26T00:03:26.690Z,6.40
2019-03-26T00:05:55.433Z,6.50
2019-03-26T00:08:24.148Z,6.50
2019-03-26T00:10:53.153Z,6.60
2019-03-26T00:13:21.897Z,6.70
2019-03-26T00:15:52.464Z,6.70
2019-03-26T00:18:21.178Z,6.70
2019-03-26T00:20:50.254Z,6.60
2019-03-26T00:23:19.347Z,6.60
2019-03-26T00:25:48.449Z,6.60
2019-03-26T00:28:18.634Z,6.70
2019-03-26T00:30:48.347Z,6.70
2019-03-26T00:33:17.679Z,6.80
2019-03-26T00:35:46.784Z,6.80
2019-03-26T00:38:15.985Z,6.70
2019-03-26T00:40:45.072Z,6.70
2019-03-26T00:43:14.372Z,6.70
2019-03-26T00:45:44.490Z,6.70
2019-03-26T00:48:13.197Z,6.60
2019-03-26T00:50:42.274Z,6.60
2019-03-26T00:53:11.100Z,6.60
2019-03-26T00:55:40.271Z,6.50
2019-03-26T00:58:09.054Z,6.50
2019-03-26T01:00:41.088Z,6.50
2019-03-26T01:03:10.327Z,6.40
2019-03-26T01:05:39.735Z,6.50
2019-03-26T01:08:08.649Z,6.50
2019-03-26T01:10:37.466Z,6.40
2019-03-26T01:13:06.474Z,6.50
2019-03-26T01:15:35.611Z,6.40
2019-03-26T01:18:04.902Z,6.40
2019-03-26T01:20:33.612Z,6.40
2019-03-26T01:23:02.796Z,6.40
2019-03-26T01:25:31.884Z,6.30
2019-03-26T01:28:00.982Z,6.30
2019-03-26T01:30:30.079Z,6.20
2019-03-26T01:32:59.175Z,6.10
2019-03-26T01:35:28.267Z,6.10
2019-03-26T01:37:57.465Z,6.10
2019-03-26T01:40:26.562Z,6.10
2019-03-26T01:42:55.554Z,6.10
2019-03-26T01:45:24.301Z,6.00
2019-03-26T01:47:53.367Z,5.80
2019-03-26T01:50:22.577Z,5.70
2019-03-26T01:52:51.642Z,5.60
2019-03-26T01:55:20.733Z,5.50
2019-03-26T01:57:49.479Z,5.40
2019-03-26T02:00:18.622Z,5.30
2019-03-26T02:02:47.400Z,5.30
2019-03-26T02:05:16.511Z,5.30
2019-03-26T02:07:45.708Z,5.20
2019-03-26T02:10:15.315Z,5.20
2019-03-26T02:12:44.583Z,5.20
2019-03-26T02:15:16.261Z,5.10
2019-03-26T02:17:44.971Z,5.10
2019-03-26T02:20:14.066Z,5.00
2019-03-26T02:22:42.784Z,4.90
2019-03-26T02:25:12.043Z,4.90
2019-03-26T02:27:41.244Z,4.90
2019-03-26T02:30:10.286Z,4.90
2019-03-26T02:32:39.440Z,4.90
2019-03-26T02:35:17.878Z,4.90
2019-03-26T02:37:39.271Z,4.90
2019-03-26T02:40:08.368Z,4.90
2019-03-26T02:42:37.653Z,5.00
2019-03-26T02:45:06.969Z,5.10
2019-03-26T02:47:35.738Z,5.20
2019-03-26T02:50:07.681Z,5.10
2019-03-26T02:52:36.714Z,5.20
2019-03-26T02:55:07.548Z,5.20
2019-03-26T02:57:36.286Z,5.20
2019-03-26T03:00:07.546Z,5.30
2019-03-26T03:02:36.688Z,5.30
2019-03-26T03:05:06.083Z,5.30
2019-03-26T03:07:35.186Z,5.30
2019-03-26T03:10:06.454Z,5.30
2019-03-26T03:12:35.142Z,5.30
2019-03-26T03:15:04.932Z,5.40
2019-03-26T03:17:34.127Z,5.30
2019-03-26T03:20:02.895Z,5.40
2019-03-26T03:22:31.608Z,5.30
2019-03-26T03:25:00.533Z,5.30
2019-03-26T03:27:29.687Z,5.30
2019-03-26T03:29:58.799Z,5.30
2019-03-26T03:32:27.888Z,5.20
2019-03-26T03:34:57.092Z,5.20
2019-03-26T03:37:26.178Z,5.10
2019-03-26T03:39:55.277Z,5.10
2019-03-26T03:42:24.373Z,5.00
2019-03-26T03:44:53.567Z,5.00
2019-03-26T03:47:23.750Z,5.00
2019-03-26T03:49:53.616Z,5.10
2019-03-26T03:52:24.155Z,5.10
2019-03-26T03:54:53.966Z,5.10
2019-03-26T03:57:25.553Z,5.10
2019-03-26T03:59:54.797Z,5.00
2019-03-26T04:02:23.797Z,4.90
2019-03-26T04:04:52.905Z,4.90
2019-03-26T04:07:21.995Z,4.90
2019-03-26T04:09:50.812Z,4.90
2019-03-26T04:12:19.881Z,4.80
2019-03-26T04:14:49.072Z,4.70
2019-03-26T04:17:18.177Z,4.80
2019-03-26T04:19:47.274Z,4.80
2019-03-26T04:22:16.472Z,4.80
2019-03-26T04:24:45.179Z,4.90
2019-03-26T04:27:14.361Z,4.90
2019-03-26T04:29:43.458Z,4.80
2019-03-26T04:32:12.195Z,4.70
2019-03-26T04:34:40.936Z,4.60
2019-03-26T04:37:10.020Z,4.50
2019-03-26T04:39:38.773Z,4.40
2019-03-26T04:42:08.028Z,4.30
2019-03-26T04:44:37.108Z,4.40
2019-03-26T04:47:06.314Z,4.50
2019-03-26T04:49:35.091Z,4.40
2019-03-26T04:52:04.494Z,4.40
2019-03-26T04:54:33.695Z,4.30
2019-03-26T04:57:02.898Z,4.20
2019-03-26T04:59:31.603Z,4.20
2019-03-26T05:02:00.804Z,4.10
2019-03-26T05:04:29.880Z,4.10
2019-03-26T05:06:58.968Z,4.10
2019-03-26T05:09:28.065Z,4.10
2019-03-26T05:11:56.933Z,4.10
2019-03-26T05:14:25.716Z,4.10
2019-03-26T05:16:54.857Z,4.10
2019-03-26T05:19:23.948Z,4.00
2019-03-26T05:21:53.138Z,3.90
2019-03-26T05:24:21.885Z,3.90
2019-03-26T05:26:50.928Z,4.00
2019-03-26T05:29:19.709Z,4.20
2019-03-26T05:31:48.819Z,4.20
2019-03-26T05:34:17.521Z,4.20
2019-03-26T05:36:51.684Z,4.10
2019-03-26T05:39:16.651Z,4.00
2019-03-26T05:41:45.519Z,3.90
2019-03-26T05:44:14.594Z,3.80
2019-03-26T05:46:43.699Z,3.80
2019-03-26T05:49:12.457Z,3.80
2019-03-26T05:51:41.236Z,3.80
2019-03-26T05:54:09.948Z,3.70
2019-03-26T05:56:38.711Z,3.60
2019-03-26T05:59:07.847Z,3.50
2019-03-26T06:01:36.947Z,3.50
2019-03-26T06:04:06.033Z,3.50
2019-03-26T06:06:34.755Z,3.50
2019-03-26T06:09:04.635Z,3.50
2019-03-26T06:11:33.735Z,3.40
2019-03-26T06:14:02.444Z,3.40
2019-03-26T06:16:38.386Z,3.50
2019-03-26T06:19:01.906Z,3.60
2019-03-26T06:21:30.622Z,3.70
2019-03-26T06:23:59.736Z,3.80
2019-03-26T06:26:28.829Z,3.90
2019-03-26T06:28:57.616Z,4.10
2019-03-26T06:31:26.607Z,4.10
2019-03-26T06:33:55.327Z,4.20
2019-03-26T06:36:24.054Z,4.40
2019-03-26T06:38:52.874Z,4.40
2019-03-26T06:41:21.968Z,4.50
2019-03-26T06:43:50.862Z,4.60
2019-03-26T06:46:19.964Z,4.80
2019-03-26T06:48:49.058Z,4.90
2019-03-26T06:51:18.151Z,4.90
2019-03-26T06:53:47.356Z,5.00
2019-03-26T06:56:16.449Z,5.10
2019-03-26T06:58:45.650Z,5.10
2019-03-26T07:01:15.164Z,5.20
2019-03-26T07:03:43.875Z,5.30
2019-03-26T07:06:13.038Z,5.30
2019-03-26T07:08:42.138Z,5.40
2019-03-26T07:11:10.959Z,5.50
2019-03-26T07:13:40.038Z,5.60
2019-03-26T07:16:08.857Z,5.80
2019-03-26T07:18:38.011Z,6.00
2019-03-26T07:21:07.218Z,6.30
2019-03-26T07:23:36.308Z,6.70
2019-03-26T07:26:05.095Z,7.20
2019-03-26T07:28:34.303Z,7.60
2019-03-26T07:31:03.397Z,8.10
2019-03-26T07:33:32.137Z,8.50
2019-03-26T07:36:01.288Z,8.90
2019-03-26T07:38:30.485Z,9.50
2019-03-26T07:40:59.197Z,9.60
2019-03-26T07:43:27.976Z,9.80
2019-03-26T07:45:56.803Z,10.10
2019-03-26T07:48:25.519Z,10.50
2019-03-26T07:50:54.634Z,10.60
2019-03-26T07:53:23.725Z,10.70
2019-03-26T07:55:52.440Z,11.00
2019-03-26T07:58:21.155Z,11.20
2019-03-26T08:00:50.300Z,11.50
2019-03-26T08:03:21.217Z,11.70
2019-03-26T08:05:50.439Z,11.60
2019-03-26T08:08:19.253Z,11.70
2019-03-26T08:10:48.431Z,11.60
2019-03-26T08:13:17.273Z,11.60
2019-03-26T08:15:46.070Z,11.70
2019-03-26T08:18:14.916Z,11.80
2019-03-26T08:20:44.089Z,11.70
2019-03-26T08:23:13.188Z,11.80
2019-03-26T08:25:41.968Z,11.70
2019-03-26T08:28:11.198Z,11.80
2019-03-26T08:30:40.296Z,11.90
2019-03-26T08:33:09.381Z,11.90
2019-03-26T08:35:38.470Z,12.10
2019-03-26T08:38:12.839Z,11.70
2019-03-26T08:40:37.663Z,11.50
2019-03-26T08:43:06.728Z,11.50
2019-03-26T08:45:35.882Z,11.40
2019-03-26T08:48:05.174Z,11.50
2019-03-26T08:50:34.284Z,11.70
2019-03-26T08:53:03.105Z,11.80
2019-03-26T08:55:32.156Z,11.80
2019-03-26T08:58:01.256Z,11.90
2019-03-26T09:00:32.104Z,11.90
2019-03-26T09:03:01.196Z,11.80
2019-03-26T09:05:29.918Z,11.50
2019-03-26T09:07:58.674Z,11.20
2019-03-26T09:10:27.772Z,11.10
2019-03-26T09:12:56.557Z,11.10
2019-03-26T09:15:25.391Z,11.20
2019-03-26T09:17:54.181Z,11.40
2019-03-26T09:20:22.959Z,11.90
2019-03-26T09:22:51.786Z,12.00
2019-03-26T09:25:20.919Z,12.20
2019-03-26T09:27:52.425Z,12.30
2019-03-26T09:30:20.486Z,12.20
2019-03-26T09:32:49.203Z,12.00
2019-03-26T09:35:17.999Z,12.00
2019-03-26T09:37:46.752Z,12.10
2019-03-26T09:40:16.738Z,12.00
2019-03-26T09:42:45.820Z,11.70
2019-03-26T09:45:15.322Z,11.40
2019-03-26T09:47:44.422Z,11.40
2019-03-26T09:50:14.035Z,11.40
2019-03-26T09:52:43.151Z,11.20
2019-03-26T09:55:12.553Z,11.00
2019-03-26T09:57:41.645Z,11.00
2019-03-26T10:00:12.216Z,10.90
2019-03-26T10:02:43.077Z,11.30
2019-03-26T10:05:12.602Z,11.50
2019-03-26T10:07:41.378Z,11.80
2019-03-26T10:10:11.438Z,12.10
2019-03-26T10:12:40.196Z,12.80
2019-03-26T10:15:09.223Z,13.70
2019-03-26T10:17:38.005Z,14.50
2019-03-26T10:20:08.506Z,15.20
2019-03-26T10:22:38.527Z,16.10
2019-03-26T10:25:11.514Z,16.50
2019-03-26T10:27:39.910Z,17.20
2019-03-26T10:30:11.245Z,17.60
2019-03-26T10:32:40.365Z,18.20
2019-03-26T10:35:10.083Z,18.40
2019-03-26T10:37:39.253Z,18.50
2019-03-26T10:40:09.575Z,18.40
2019-03-26T10:42:38.668Z,18.80
2019-03-26T10:45:08.799Z,18.90
2019-03-26T10:47:37.892Z,19.40
2019-03-26T10:50:08.043Z,19.80
2019-03-26T10:52:36.806Z,20.00
2019-03-26T10:55:07.123Z,19.40
2019-03-26T10:57:36.037Z,18.90
2019-03-26T11:00:08.391Z,18.80
2019-03-26T11:02:37.110Z,18.60
2019-03-26T11:05:08.123Z,17.90
2019-03-26T11:07:37.212Z,17.40
2019-03-26T11:10:07.636Z,16.90
2019-03-26T11:12:36.741Z,16.60
2019-03-26T11:15:10.655Z,16.20
2019-03-26T11:17:39.371Z,15.90
2019-03-26T11:20:09.984Z,15.70
2019-03-26T11:22:39.175Z,15.30
2019-03-26T11:25:11.964Z,14.80
2019-03-26T11:27:40.232Z,14.60
2019-03-26T11:30:09.935Z,14.60
2019-03-26T11:32:39.240Z,14.30
2019-03-26T11:35:09.675Z,14.20
2019-03-26T11:37:39.363Z,14.10
2019-03-26T11:40:09.812Z,13.90
2019-03-26T11:42:38.913Z,13.90
2019-03-26T11:45:09.274Z,13.90
2019-03-26T11:47:40.067Z,14.00
2019-03-26T11:50:10.909Z,14.20
2019-03-26T11:52:40.716Z,14.30
2019-03-26T11:55:11.767Z,14.70
2019-03-26T11:57:40.847Z,15.20
2019-03-26T12:00:12.738Z,15.70
2019-03-26T12:02:41.465Z,16.40
2019-03-26T12:05:11.211Z,16.90
2019-03-26T12:07:42.795Z,17.00
2019-03-26T12:10:10.942Z,17.40
2019-03-26T12:12:40.045Z,17.70
2019-03-26T12:15:09.467Z,17.70
2019-03-26T12:17:38.257Z,17.30
2019-03-26T12:20:07.998Z,16.90
2019-03-26T12:22:37.147Z,16.60
2019-03-26T12:25:07.333Z,16.60
2019-03-26T12:27:36.682Z,16.20
2019-03-26T12:30:08.428Z,15.90
2019-03-26T12:32:40.511Z,15.60
2019-03-26T12:35:08.440Z,15.50
2019-03-26T12:37:37.561Z,15.50
2019-03-26T12:40:08.101Z,15.30
2019-03-26T12:42:36.891Z,15.30
2019-03-26T12:45:08.845Z,15.40
2019-03-26T12:47:37.951Z,15.30
2019-03-26T12:50:09.592Z,15.20
2019-03-26T12:52:38.416Z,15.20
2019-03-26T12:55:07.233Z,15.10
2019-03-26T12:57:36.368Z,15.10
2019-03-26T13:00:08.535Z,15.20
2019-03-26T13:02:37.329Z,15.10
2019-03-26T13:05:07.458Z,15.20
2019-03-26T13:07:36.645Z,15.50
2019-03-26T13:10:14.127Z,15.40
2019-03-26T13:12:37.801Z,15.50
2019-03-26T13:15:07.971Z,15.40
2019-03-26T13:17:37.128Z,15.40
2019-03-26T13:20:07.615Z,15.40
2019-03-26T13:22:36.760Z,15.60
2019-03-26T13:25:09.536Z,15.80
2019-03-26T13:27:38.315Z,15.70
2019-03-26T13:30:08.803Z,15.60
2019-03-26T13:32:37.960Z,15.70
2019-03-26T13:35:10.126Z,15.70
2019-03-26T13:37:39.330Z,15.80
2019-03-26T13:40:08.423Z,16.00
2019-03-26T13:42:37.709Z,16.10
2019-03-26T13:45:08.029Z,16.20
2019-03-26T13:47:37.057Z,16.10
2019-03-26T13:50:07.881Z,16.00
2019-03-26T13:52:36.969Z,16.10
2019-03-26T13:55:08.288Z,16.10
2019-03-26T13:57:37.073Z,16.10
2019-03-26T14:00:10.238Z,16.00
2019-03-26T14:02:38.217Z,16.00
2019-03-26T14:05:26.623Z,16.00
2019-03-26T14:07:55.456Z,15.80
2019-03-26T14:10:24.511Z,15.60
2019-03-26T14:12:53.219Z,15.60
2019-03-26T14:15:22.300Z,15.60
2019-03-26T14:17:51.387Z,15.50
2019-03-26T14:20:21.000Z,15.50
2019-03-26T14:22:50.193Z,15.30
2019-03-26T14:25:18.982Z,15.20
2019-03-26T14:27:48.087Z,15.30
2019-03-26T14:30:19.830Z,15.20
2019-03-26T14:32:48.542Z,15.20
2019-03-26T14:35:17.329Z,15.30
2019-03-26T14:37:51.574Z,15.20
2019-03-26T14:40:16.940Z,15.20
2019-03-26T14:42:46.043Z,15.20
2019-03-26T14:45:15.344Z,15.30
2019-03-26T14:47:44.323Z,15.20
2019-03-26T14:50:13.304Z,15.20
2019-03-26T14:52:42.114Z,15.20
2019-03-26T14:55:11.225Z,15.10
2019-03-26T14:57:40.422Z,15.10
2019-03-26T15:00:09.400Z,14.80
2019-03-26T15:02:38.509Z,14.70
2019-03-26T15:05:08.216Z,14.50
2019-03-26T15:07:37.015Z,14.40
2019-03-26T15:10:06.999Z,14.40
2019-03-26T15:12:36.129Z,14.30
2019-03-26T15:15:06.868Z,14.30
2019-03-26T15:17:35.946Z,14.30
2019-03-26T15:20:06.341Z,14.20
2019-03-26T15:22:35.476Z,14.30
2019-03-26T15:25:06.172Z,14.20
2019-03-26T15:27:35.311Z,14.10
2019-03-26T15:30:06.999Z,14.20
2019-03-26T15:32:35.774Z,14.30
2019-03-26T15:35:06.689Z,14.20
2019-03-26T15:37:35.785Z,14.10
2019-03-26T15:40:07.205Z,13.80
2019-03-26T15:42:36.336Z,13.70
2019-03-26T15:45:08.409Z,13.60
2019-03-26T15:47:37.595Z,13.50
2019-03-26T15:50:08.743Z,13.40
2019-03-26T15:52:37.953Z,13.20
2019-03-26T15:55:07.867Z,13.10
2019-03-26T15:57:36.963Z,13.00
2019-03-26T16:00:08.718Z,12.90
2019-03-26T16:02:37.811Z,12.90
2019-03-26T16:05:08.651Z,12.80
2019-03-26T16:07:37.751Z,12.70
2019-03-26T16:10:08.689Z,12.50
2019-03-26T16:12:41.259Z,12.50
2019-03-26T16:15:09.037Z,12.60
2019-03-26T16:17:37.851Z,12.50
2019-03-26T16:20:07.935Z,12.50
2019-03-26T16:22:37.041Z,12.40
2019-03-26T16:25:07.159Z,12.40
2019-03-26T16:27:36.251Z,12.30
2019-03-26T16:30:08.933Z,12.30
2019-03-26T16:32:37.670Z,12.30
2019-03-26T16:35:06.698Z,12.40
2019-03-26T16:37:35.820Z,12.20
2019-03-26T16:40:06.213Z,12.30
2019-03-26T16:42:35.340Z,12.20
2019-03-26T16:45:05.964Z,12.20
2019-03-26T16:47:34.686Z,12.20
2019-03-26T16:50:04.766Z,12.20
2019-03-26T16:52:33.976Z,12.20
2019-03-26T16:55:03.068Z,12.30
2019-03-26T16:57:32.220Z,12.20
2019-03-26T17:00:00.998Z,12.20
2019-03-26T17:02:30.160Z,12.30
2019-03-26T17:04:58.935Z,12.30
2019-03-26T17:07:28.046Z,12.30
2019-03-26T17:09:57.171Z,12.30
2019-03-26T17:12:26.340Z,12.20
2019-03-26T17:14:55.434Z,12.30
2019-03-26T17:17:24.523Z,12.30
2019-03-26T17:19:53.618Z,12.20
2019-03-26T17:22:22.415Z,12.20
2019-03-26T17:24:51.298Z,12.20
2019-03-26T17:27:20.321Z,12.20
2019-03-26T17:29:49.091Z,12.20
2019-03-26T17:32:18.297Z,12.10
2019-03-26T17:34:47.012Z,12.10
2019-03-26T17:37:16.177Z,12.10
2019-03-26T17:39:45.276Z,12.00
2019-03-26T17:42:17.483Z,11.90
2019-03-26T17:44:45.105Z,11.90
2019-03-26T17:47:14.216Z,11.90
2019-03-26T17:49:43.299Z,11.90
2019-03-26T17:52:12.388Z,11.90
2019-03-26T17:54:41.487Z,11.80
2019-03-26T17:57:10.282Z,11.70
2019-03-26T17:59:38.987Z,11.60
2019-03-26T18:02:07.813Z,11.60
2019-03-26T18:04:36.958Z,11.60
2019-03-26T18:07:06.079Z,11.50
2019-03-26T18:09:35.255Z,11.60
2019-03-26T18:12:04.095Z,11.60
2019-03-26T18:14:33.145Z,11.60
2019-03-26T18:17:01.962Z,11.50
2019-03-26T18:19:30.773Z,11.50
2019-03-26T18:21:59.557Z,11.40
2019-03-26T18:24:28.713Z,11.40
2019-03-26T18:26:57.808Z,11.30
2019-03-26T18:29:26.603Z,11.30
2019-03-26T18:31:55.442Z,11.30
2019-03-26T18:34:24.582Z,11.30
2019-03-26T18:36:53.376Z,11.20
2019-03-26T18:39:22.212Z,11.20
2019-03-26T18:41:51.167Z,11.20
2019-03-26T18:44:20.249Z,11.20
2019-03-26T18:46:49.453Z,11.20
2019-03-26T18:49:18.552Z,11.20
2019-03-26T18:51:47.335Z,11.20
2019-03-26T18:54:16.990Z,11.30
2019-03-26T18:56:46.139Z,11.20
2019-03-26T18:59:14.853Z,11.00
2019-03-26T19:01:44.027Z,11.00
2019-03-26T19:04:12.816Z,10.90
2019-03-26T19:06:41.538Z,10.80
2019-03-26T19:09:10.370Z,10.80
2019-03-26T19:11:39.298Z,10.80
2019-03-26T19:14:08.390Z,10.80
2019-03-26T19:16:37.586Z,10.80
2019-03-26T19:19:06.386Z,10.80
2019-03-26T19:21:35.160Z,10.80
2019-03-26T19:24:04.915Z,10.70
2019-03-26T19:26:34.009Z,10.60
2019-03-26T19:29:02.805Z,10.50
2019-03-26T19:31:31.958Z,10.60
2019-03-26T19:34:00.812Z,10.60
2019-03-26T19:36:29.611Z,10.60
2019-03-26T19:38:58.734Z,10.60
2019-03-26T19:41:27.555Z,10.60
2019-03-26T19:43:56.618Z,10.60
2019-03-26T19:46:25.721Z,10.60
2019-03-26T19:48:54.547Z,10.50
2019-03-26T19:51:23.476Z,10.40
2019-03-26T19:53:52.803Z,10.30
2019-03-26T19:56:21.617Z,10.10
2019-03-26T19:58:50.794Z,10.00
2019-03-26T20:01:19.885Z,9.90
2019-03-26T20:03:48.710Z,9.80
2019-03-26T20:06:17.887Z,9.80
2019-03-26T20:08:46.970Z,9.70
2019-03-26T20:11:15.869Z,9.60
2019-03-26T20:13:44.855Z,9.50
2019-03-26T20:16:13.670Z,9.40
2019-03-26T20:18:42.492Z,9.40
2019-03-26T20:21:11.267Z,9.30
2019-03-26T20:23:40.081Z,9.30
2019-03-26T20:26:09.329Z,9.30
2019-03-26T20:28:38.413Z,9.30
2019-03-26T20:31:07.190Z,9.30
2019-03-26T20:33:36.007Z,9.40
2019-03-26T20:36:04.790Z,9.30
2019-03-26T20:38:33.619Z,9.30
2019-03-26T20:41:02.399Z,9.30
2019-03-26T20:43:37.286Z,9.30
2019-03-26T20:46:02.247Z,9.40
2019-03-26T20:48:31.034Z,9.40
2019-03-26T20:50:59.792Z,9.50
2019-03-26T20:53:28.505Z,9.50
2019-03-26T20:55:57.516Z,9.50
2019-03-26T20:58:26.340Z,9.60
2019-03-26T21:00:55.050Z,9.60
2019-03-26T21:03:23.834Z,9.50
2019-03-26T21:05:53.033Z,9.60
2019-03-26T21:08:22.109Z,9.50
2019-03-26T21:10:51.215Z,9.50
2019-03-26T21:13:20.418Z,9.50
2019-03-26T21:15:57.128Z,9.50
2019-03-26T21:18:19.635Z,9.60
2019-03-26T21:20:48.383Z,9.60
2019-03-26T21:23:17.510Z,9.70
2019-03-26T21:25:46.296Z,9.70
2019-03-26T21:28:15.987Z,9.70
2019-03-26T21:30:44.966Z,9.70
2019-03-26T21:33:14.583Z,9.70
2019-03-26T21:35:43.542Z,9.80
2019-03-26T21:38:12.372Z,9.80
2019-03-26T21:40:41.094Z,9.80
2019-03-26T21:43:09.902Z,9.80
2019-03-26T21:45:39.890Z,9.80
2019-03-26T21:48:09.198Z,9.80
2019-03-26T21:50:38.297Z,9.80
2019-03-26T21:53:07.289Z,9.80
2019-03-26T21:55:36.378Z,9.80
2019-03-26T21:58:05.193Z,9.80
2019-03-26T22:00:34.216Z,9.70
2019-03-26T22:03:03.274Z,9.70
2019-03-26T22:05:36.167Z,9.80
2019-03-26T22:08:04.951Z,9.80
2019-03-26T22:10:39.467Z,9.80
2019-03-26T22:13:08.273Z,9.80
2019-03-26T22:15:37.451Z,9.80
2019-03-26T22:18:06.237Z,9.70
2019-03-26T22:20:35.042Z,9.80
2019-03-26T22:23:04.321Z,9.80
2019-03-26T22:25:33.548Z,9.80
2019-03-26T22:28:02.343Z,9.80
2019-03-26T22:30:31.413Z,9.80
2019-03-26T22:33:00.617Z,9.80
2019-03-26T22:35:29.705Z,9.70
2019-03-26T22:37:58.481Z,9.80
2019-03-26T22:40:27.600Z,9.80
2019-03-26T22:42:56.796Z,9.80
2019-03-26T22:45:25.887Z,9.80
2019-03-26T22:47:54.640Z,9.80
2019-03-26T22:50:23.778Z,9.80
2019-03-26T22:52:52.562Z,9.80
2019-03-26T22:55:21.671Z,9.80
2019-03-26T22:57:50.449Z,9.90
2019-03-26T23:00:21.376Z,9.80
2019-03-26T23:02:50.488Z,9.90
2019-03-26T23:05:19.788Z,9.90
2019-03-26T23:07:48.886Z,9.90
2019-03-26T23:10:19.239Z,9.80
2019-03-26T23:12:48.416Z,9.80
2019-03-26T23:15:25.259Z,9.80
2019-03-26T23:17:54.389Z,9.70
2019-03-26T23:20:23.507Z,9.70
2019-03-26T23:22:52.680Z,9.70
2019-03-26T23:25:21.464Z,9.70
2019-03-26T23:27:50.243Z,9.60
2019-03-26T23:30:20.178Z,9.60
2019-03-26T23:32:48.893Z,9.50
2019-03-26T23:35:17.959Z,9.50
2019-03-26T23:37:46.709Z,9.50
2019-03-26T23:40:15.788Z,9.40
2019-03-26T23:42:44.875Z,9.50
2019-03-26T23:45:13.935Z,9.50
2019-03-26T23:47:42.927Z,9.50
2019-03-26T23:50:11.745Z,9.50
2019-03-26T23:52:40.567Z,9.60
2019-03-26T23:55:09.819Z,9.60
2019-03-26T23:57:38.915Z,9.50
